This is the latest recevied weather packets stored in our database for station/object OE-11061. If no packets are shown the sender has not sent any weather packets the latest 10 day(s).
| Time | Temp. | Humidity | Pressure | Rain* | Wind** | Luminosity | Snow |
|---|---|---|---|---|---|---|---|
| 1787786120 | 17.22° C | 92% | 1016 hPa | 0 mm | - | 0 W/m² | - |
| 1787785521 | 17.22° C | 91% | 1016.2 hPa | 0 mm | - | 0 W/m² | - |
| 1787784921 | 17.22° C | 91% | 1016.1 hPa | 0 mm | - | 0 W/m² | - |
| 1787784094 | 17.22° C | 91% | 1016.1 hPa | 0 mm | - | 0 W/m² | - |
| 1787783721 | 17.22° C | 90% | 1015.9 hPa | 0 mm | - | 0 W/m² | - |
| 1787783120 | 17.78° C | 88% | 1015.9 hPa | 0 mm | - | 0 W/m² | - |
| 1787782295 | 17.78° C | 88% | 1016 hPa | 0 mm | - | 0 W/m² | - |
| 1787781921 | 17.78° C | 86% | 1016 hPa | 0 mm | - | 0 W/m² | - |
| 1787781321 | 17.78° C | 85% | 1016.2 hPa | 0 mm | - | 0 W/m² | - |
| 1787780495 | 18.33° C | 84% | 1016.1 hPa | 0 mm | - | 0 W/m² | - |
| 1787780121 | 18.33° C | 85% | 1016.1 hPa | 0 mm | - | 0 W/m² | - |
| 1787779520 | 18.89° C | 83% | 1016 hPa | 0 mm | - | 0 W/m² | - |
| 1787778694 | 18.89° C | 82% | 1015.9 hPa | 0 mm | - | 0 W/m² | - |
| 1787778327 | 18.89° C | 83% | 1015.9 hPa | 0 mm | - | 0 W/m² | - |
| 1787777721 | 19.44° C | 82% | 1015.8 hPa | 0 mm | - | 0 W/m² | - |
| 1787776894 | 19.44° C | 82% | 1015.9 hPa | 0 mm | - | 0 W/m² | - |
| 1787776520 | 20° C | 79% | 1015.7 hPa | 0 mm | - | 0 W/m² | - |
| 1787775921 | 20° C | 78% | 1015.7 hPa | 0 mm | - | 0 W/m² | - |
| 1787775095 | 19.44° C | 80% | 1015.7 hPa | 0 mm | - | 0 W/m² | - |
| 1787774721 | 19.44° C | 81% | 1015.9 hPa | 0 mm | - | 0 W/m² | - |
| 1787774121 | 19.44° C | 82% | 1015.9 hPa | 0 mm | - | 0 W/m² | - |
| 1787773294 | 19.44° C | 82% | 1016 hPa | 0 mm | - | 0 W/m² | - |
| 1787772921 | 19.44° C | 81% | 1016 hPa | 0 mm | - | 0 W/m² | - |
| 1787772321 | 19.44° C | 81% | 1015.8 hPa | 0 mm | - | 0 W/m² | - |
| 1787771494 | 20° C | 80% | 1015.7 hPa | 0 mm | - | 0 W/m² | - |
* Rain latest hour (hover to see other rain measurements)
** Current wind speed in m/s (hover to see current wind gust speed)